Des Moines, IA

1:27 PM CST on December 27, 2014 (GMT -0600)
Wunderbury | Change Station
CLOSE
Current Station
Personal Weather Station
Location: Des Moines, IA
Elevation: 900 ft
Nearby Weather Stations

Elev 900 ft 41.59 °N, 93.69 °W | Updated 4 days ago

Mostly Cloudy
Mostly Cloudy
29 °F
Feels Like 19 °F
N
12
Wind Variable Wind from WNW
Gusts 18 mph

Today
High -- | Low -- °F
--% Chance of Precip.
Yesterday
High -- | Low -- °F
Precip. -- in
7:40 AM 4:51 PM
Waxing Crescent, 39% visible
Pressure 30.17 in
Visibility 10.0 miles
Clouds Mostly Cloudy 1500 ft
Mostly Cloudy 2000 ft
Windchill 19 °F
Dew Point 21 °F
Humidity 73%
Rainfall 0.00 in
Snow Depth Not available.
UV 1 out of 12
Pollen .10 out of 12
Air Quality Not available.
Flu Activity Not available.
METAR KDSM 271854Z 30013KT 10SM BKN015 BKN020 M02/M06 A3017

More Conditions Fewer Conditions

Pressure 30.17 in
Visibility 10.0 miles
Clouds Mostly Cloudy 1500 ft
Mostly Cloudy 2000 ft
Windchill 19 °F
Dew Point 21 °F
Humidity 73%
Rainfall 0.00 in
Snow Depth Not available.
UV 1 out of 12
Pollen .10 out of 12
Air Quality Not available.
Flu Activity Not available.
METAR KDSM 271854Z 30013KT 10SM BKN015 BKN020 M02/M06 A3017

More Conditions Fewer Conditions

10-Day Weather Forecast

Almanac

Astronomy

Dec. 27, 2014 Rise Set
Actual Time
Civil Twilight
Nautical Twilight
Astronomical Twilight
Moon
Length of Visible Light
Length of Day
Tomorrow will be .
, % of the Moon is Illuminated

Today's Extremes

State Highs State Lows

Community

WunderPhotos

Upload Photos

1,781,026 photos uploaded!

WunderBlogs® & News

Nearby

Air Quality

  Air Quality AQ Index Pollutant
Not available.

Snow Depth

Station Depth Elevation

Earthquake Activity

City Distance Mag. Time & Date
Minimum magnitude displayed is 2.5.

Coastal Water Temperatures

Place Temperature

Nearby Weather Stations